GUANICA PR US current weather conditions

sailwx.info

Wind from 094 at 8 knots gusting 19

Air temperature 32.8° C
Dewpoint 25.8° C

Last reported at 2018-Sep-19 17:09 UTC.
Time now 2018-Sep-19 18:21 UTC

Location: N 17°57' W 066°53'.
View on Google Maps.

See reports from other nearby stations

  
Tides and Currents Weather Stations Pressure Air Temp Water Temp Dewpoint Dewpoint Depression Visibility Wind Speed Wind Dir Waves Ship Positions
date/time (UTC)wind fromknots sea level pressurealtimeterstation pressurevisibilityair tempwater tempwave heightnotes
2018-Sep-19 17:09 094 8 gusting 19 32.8
2018-Sep-19 16:09 103 7 gusting 17 32.8
2018-Sep-19 15:09 094 7 gusting 15 32.8
2018-Sep-19 14:09 104 7 gusting 13 32.2
2018-Sep-19 13:09 092 6 gusting 12 32.2
2018-Sep-19 12:09 075 5 gusting 10 30.6
2018-Sep-19 11:09 063 4 gusting 9 28.3
2018-Sep-19 10:09 064 3 gusting 7 26.7
2018-Sep-19 09:09 061 3 gusting 7 26.7
2018-Sep-19 08:09 061 3 gusting 7 26.7
2018-Sep-19 07:09 050 3 gusting 7 26.7
2018-Sep-19 06:09 062 4 gusting 9 27.2
2018-Sep-19 05:09 059 4 gusting 8 27.2
2018-Sep-19 04:09 055 4 gusting 8 27.2
2018-Sep-19 03:09 055 3 gusting 6 27.2
2018-Sep-19 02:09 072 3 gusting 9 27.8
2018-Sep-19 01:09 084 4 gusting 10 28.3
2018-Sep-19 00:09 085 4 gusting 9 28.9
2018-Sep-18 23:09 086 4 gusting 10 28.9
2018-Sep-18 22:09 089 5 gusting 13 28.9
2018-Sep-18 21:09 101 6 gusting 12 31.1
2018-Sep-18 20:09 099 5 gusting 13 31.1
2018-Sep-18 19:09 108 6 gusting 13 33.3
2018-Sep-18 18:09 102 6 gusting 13 33.3
2018-Sep-18 17:09 114 5 gusting 11 33.3
2018-Sep-18 16:09 112 5 gusting 12 32.8
2018-Sep-18 15:09 098 5 gusting 11 33.3
2018-Sep-18 14:09 083 6 gusting 13 32.2
2018-Sep-18 13:09 076 6 gusting 13 31.1
2018-Sep-18 12:09 087 5 gusting 10 30.0
2018-Sep-18 11:09 066 4 gusting 8 27.8
2018-Sep-18 10:09 062 3 gusting 6 26.1
2018-Sep-18 09:09 066 3 gusting 8 26.1
2018-Sep-18 08:09 071 4 gusting 7 27.2
2018-Sep-18 07:09 060 3 gusting 6 27.2
2018-Sep-18 06:09 066 3 gusting 6 27.2
2018-Sep-18 05:09 060 4 gusting 7 27.8
2018-Sep-18 04:09 052 3 gusting 6 27.2
2018-Sep-18 03:09 057 2 gusting 6 27.2
2018-Sep-18 02:09 065 1 gusting 6 27.2
2018-Sep-18 01:09 050 3 gusting 6 27.2
2018-Sep-18 00:09 055 3 gusting 8 27.8
2018-Sep-17 23:09 075 4 gusting 11 28.3
2018-Sep-17 22:09 085 5 gusting 11 28.9
2018-Sep-17 21:09 077 6 gusting 13 30.0
2018-Sep-17 20:09 099 6 gusting 12 31.1
2018-Sep-17 19:09 097 6 gusting 13 31.1
2018-Sep-17 18:09 101 6 gusting 13 32.2